Terminal Aerodrome Forecast
Issued by NWS Sterling, VA

Current Version | Previous Version | Graphics & Text | Print | Product List | Glossary On
Versions: 1 2 3 4 5 6 7 8 9 10 11 12 13 14 15 16 17 18 19 20 21 22
480
FTUS41 KLWX 272320
TAFDCA
TAF
KDCA 272320Z 2800/2824 19008KT P6SM SKC
     FM280400 00000KT P6SM SCT250
     FM280600 VRB03KT 5SM BR BKN250
     FM280900 03004KT 6SM BR BKN110
     FM281600 09007KT P6SM BKN040
     FM281800 11008KT P6SM SHRA OVC050
     FM282100 12008KT 4SM SHRA BR OVC050=

USA.gov is the U.S. government's official web portal to all federal, state and local government web resources and services.